M I D A S
Marine Information and Data Acquisition System
Tripno 309 of the Zeeleeuw from 2002-08-23 06:30:27 to 2002-08-23 13:35:26
Back to CruiseResearch ActivitiesStationsMapUnderway DataData graphs

EquipmentUnitsComment
TimeDGPSUTC
LatitudeDGPSDM.mWGS84
LongitudeDGPSDM.mWGS84
HeadingGyrodeg 
SOGDGPSknotsSpeed over ground
COGDGPSdegCourse over ground
DepthEcho soundermeters200 kHz
Missing or incorrect values are displayed as -999
Navigation data collected by the RV Zeeleeuw from 2002-08-23 06:30:27 to 2002-08-23 13:35:26
Time Latitude Longitude Heading SOG COG Depth
2002-08-23 06:31:29 51°13.674 2°55.896 99.2 2.5 284.9 -999
2002-08-23 06:32:33 51°13.68 2°55.823 81.8 2.8 272.7 -999
2002-08-23 06:33:31 51°13.674 2°55.764 58.8 1.8 246.8 9.9
2002-08-23 06:34:31 51°13.668 2°55.744 41.2 0.2 355.5 9.8
2002-08-23 06:35:30 51°13.697 2°55.742 340 3.7 339.3 12.2
2002-08-23 06:36:30 51°13.777 2°55.671 334.5 6.7 331.1 9.1
2002-08-23 06:37:31 51°13.891 2°55.587 338 7.7 335.4 9.2
2002-08-23 06:38:31 51°14.011 2°55.503 339.7 8 337.1 9.7
2002-08-23 06:39:32 51°14.134 2°55.409 336.5 8 333.8 9.1
2002-08-23 06:40:32 51°14.245 2°55.291 318.3 8.4 317 9.5
2002-08-23 06:41:30 51°14.335 2°55.115 309.7 9.1 307.4 9
2002-08-23 06:42:30 51°14.417 2°54.909 300.5 9.2 296.1 9
2002-08-23 06:43:32 51°14.462 2°54.661 279.5 9.7 274.4 8.9
2002-08-23 06:44:31 51°14.439 2°54.407 260.3 10 257 8.7
2002-08-23 06:45:31 51°14.373 2°54.113 251.5 13.5 249.3 8.2
2002-08-23 06:46:31 51°14.285 2°53.76 248.7 14.7 246.4 8.3
2002-08-23 06:47:30 51°14.185 2°53.408 246.8 14.9 244.4 8.5
2002-08-23 06:48:31 51°14.076 2°53.041 248.2 15.2 245.8 9
2002-08-23 06:49:31 51°13.97 2°52.671 247.2 15.4 244.8 9.4
2002-08-23 06:50:32 51°13.861 2°52.293 247.8 15.4 245.2 9.6
2002-08-23 06:51:31 51°13.755 2°51.93 247.7 15.3 244.8 9.6
2002-08-23 06:52:31 51°13.643 2°51.567 244.3 15.2 242 9.6
2002-08-23 06:53:32 51°13.524 2°51.198 244.7 15.5 242.7 9.7
2002-08-23 06:54:32 51°13.405 2°50.834 243.8 15.4 241.9 9.8
2002-08-23 06:55:32 51°13.279 2°50.481 241.3 15 239.9 9.9
2002-08-23 06:56:31 51°13.159 2°50.141 241.7 14.9 240.6 10.2
2002-08-23 06:57:31 51°13.036 2°49.796 242.3 15.1 240.1 10.5
2002-08-23 06:58:31 51°12.914 2°49.45 241.2 14.9 240.4 10.6
2002-08-23 06:59:31 51°12.791 2°49.104 242 15 240.5 10.7
2002-08-23 07:00:32 51°12.666 2°48.749 241.8 15.2 240.5 11
2002-08-23 07:01:31 51°12.543 2°48.406 241.5 15.1 240.1 11.1
2002-08-23 07:02:32 51°12.417 2°48.052 241.7 15 240.7 11.3
2002-08-23 07:03:32 51°12.294 2°47.706 242.2 15 240.5 11.4
2002-08-23 07:04:31 51°12.172 2°47.367 241.8 14.9 240.2 11.4
2002-08-23 07:05:30 51°12.054 2°47.016 246.2 15.6 244.2 11.5
2002-08-23 07:06:32 51°11.934 2°46.63 245.3 15.8 243.6 11.6
2002-08-23 07:07:31 51°11.83 2°46.252 251.3 15.9 248.8 11.6
2002-08-23 07:08:32 51°11.734 2°45.852 251 15.8 248.8 11.5
2002-08-23 07:09:30 51°11.643 2°45.473 251.2 15.9 248.9 11.6
2002-08-23 07:10:31 51°11.548 2°45.077 250.5 15.7 248.4 11.4
2002-08-23 07:11:31 51°11.454 2°44.689 252 15.7 249.6 11.4
2002-08-23 07:12:31 51°11.372 2°44.295 254.7 15.6 251.8 11.5
2002-08-23 07:13:31 51°11.291 2°43.899 254.3 15.8 252 11.4
2002-08-23 07:14:31 51°11.209 2°43.503 253.8 15.8 252.1 11.3
2002-08-23 07:15:32 51°11.126 2°43.099 253.8 15.9 251.6 11.3
2002-08-23 07:16:31 51°11.049 2°42.707 262.5 15.6 258.1 11.3
2002-08-23 07:17:31 51°11.055 2°42.296 280.3 15.4 274.6 11.2
2002-08-23 07:18:37 51°11.11 2°42.004 337.7 7.8 321.4 11.1
2002-08-23 07:19:35 51°11.197 2°42.001 28.3 3.2 5.1 11
2002-08-23 07:20:37 51°11.215 2°42 59.3 0.5 352.8 11.2
2002-08-23 07:21:35 51°11.22 2°42.001 79.7 0.1 115.9 11
2002-08-23 07:22:37 51°11.213 2°42.007 99 0.7 145.4 11
2002-08-23 07:23:37 51°11.201 2°42.018 94.2 0.8 138.1 11
2002-08-23 07:24:37 51°11.196 2°42.037 86 0.8 118.7 11.1
2002-08-23 07:25:35 51°11.193 2°42.055 77.8 0.8 89.8 10.9
2002-08-23 07:26:38 51°11.195 2°42.078 79 0.8 84 10.8
2002-08-23 07:27:42 51°11.187 2°42.095 96.3 0.7 144 11
2002-08-23 07:28:45 51°11.174 2°42.099 108.7 0.9 177.9 10.9
2002-08-23 07:29:45 51°11.157 2°42.096 121 1.2 195.8 11.2
2002-08-23 07:30:45 51°11.139 2°42.084 132.2 1.3 205.9 11.3
2002-08-23 07:31:45 51°11.12 2°42.068 130.3 1.3 212.1 11.2
2002-08-23 07:32:45 51°11.104 2°42.049 120.2 1.2 216.3 11.3
2002-08-23 07:33:45 51°11.09 2°42.031 107.5 1 223.6 11.4
2002-08-23 07:34:45 51°11.079 2°42.011 94 0.9 233.9 11.4
2002-08-23 07:35:45 51°11.07 2°41.991 81.7 1 237.8 11.4
2002-08-23 07:36:45 51°11.062 2°41.966 69.5 1 245.2 11.4
2002-08-23 07:37:45 51°11.055 2°41.942 61.5 1 247.8 11.4
2002-08-23 07:38:45 51°11.05 2°41.917 58.2 1 251.9 11.4
2002-08-23 07:39:45 51°11.044 2°41.893 58.3 1 251.7 11.4
2002-08-23 07:40:45 51°11.051 2°41.884 35.2 2.1 11.8 11.5
2002-08-23 07:41:50 51°11.165 2°41.737 300.8 12.8 294.3 11
2002-08-23 07:42:50 51°11.162 2°41.366 254.2 15.2 252.6 11.3
2002-08-23 07:43:50 51°11.053 2°40.994 243 15.7 241.8 11.7
2002-08-23 07:44:50 51°10.943 2°40.617 245.3 15.7 244.6 12.1
2002-08-23 07:46:02 51°10.81 2°40.163 245.8 15.7 244.9 12.8
2002-08-23 07:47:22 51°10.664 2°39.654 246.8 15.9 246.1 13.6
2002-08-23 07:48:42 51°10.527 2°39.136 255.8 15.9 253.6 14.3
2002-08-23 07:50:02 51°10.446 2°38.588 260.2 16 257.2 15.4
2002-08-23 07:51:10 51°10.375 2°38.121 259.7 16.1 256.3 16.6
2002-08-23 07:52:11 51°10.31 2°37.703 259.5 16 256 17.1
2002-08-23 07:53:12 51°10.244 2°37.285 259.3 16 255.8 16.9
2002-08-23 07:54:11 51°10.179 2°36.884 258.8 15.9 255.7 16.9
2002-08-23 07:55:11 51°10.114 2°36.478 258.5 15.7 255.1 16.8
2002-08-23 07:56:11 51°10.051 2°36.082 261.3 15.3 257.3 16.5
2002-08-23 07:57:11 51°10.132 2°35.75 336 13.3 326.8 11.1
2002-08-23 07:58:12 51°10.332 2°35.791 30.8 12.5 26.1 9.9
2002-08-23 07:59:12 51°10.518 2°35.955 35 12.7 30.8 10.3
2002-08-23 08:00:11 51°10.697 2°36.125 36.2 12.8 31.9 10.1
2002-08-23 08:01:12 51°10.881 2°36.302 34.8 12.7 30.6 10.7
2002-08-23 08:02:11 51°11.059 2°36.474 35.8 12.8 30.9 11
2002-08-23 08:03:11 51°11.239 2°36.651 35.8 12.7 31.8 11.5
2002-08-23 08:04:11 51°11.419 2°36.826 35.3 12.6 31.2 11.7
2002-08-23 08:05:11 51°11.6 2°37 35.8 12.7 30.8 11.9
2002-08-23 08:06:11 51°11.78 2°37.176 35.8 12.8 31.6 11.6
2002-08-23 08:07:11 51°11.961 2°37.355 35.3 12.8 31.1 11.7
2002-08-23 08:08:12 51°12.145 2°37.534 36.2 12.7 31.8 11.7
2002-08-23 08:09:12 51°12.326 2°37.706 35.5 12.6 30.7 11.8
2002-08-23 08:10:11 51°12.504 2°37.876 36.3 12.6 30.9 11.9
2002-08-23 08:11:12 51°12.687 2°38.052 35.3 12.7 31.2 12.2
2002-08-23 08:12:12 51°12.868 2°38.223 34.3 12.7 29.4 12.7
2002-08-23 08:13:11 51°13.05 2°38.384 33.5 12.8 27.8 13.3
2002-08-23 08:14:12 51°13.244 2°38.536 31.7 12.7 26.2 13.6
2002-08-23 08:15:11 51°13.433 2°38.676 30.5 12.8 25 13.7
2002-08-23 08:16:10 51°13.631 2°38.782 20 12.9 13.7 13.9
2002-08-23 08:17:11 51°13.849 2°38.83 8.5 13.1 2.6 13
2002-08-23 08:18:12 51°14.067 2°38.745 342.5 13.5 335.1 11.5
2002-08-23 08:19:11 51°14.269 2°38.574 340.8 14 331.7 16.2
2002-08-23 08:20:11 51°14.473 2°38.408 342 13.7 333.6 16.6
2002-08-23 08:21:11 51°14.674 2°38.241 342.5 13.6 333.1 15.4
2002-08-23 08:22:13 51°14.882 2°38.073 343 13.5 333.8 13.3
2002-08-23 08:23:13 51°15.081 2°37.909 342.5 13.5 332.1 9.6
2002-08-23 08:24:11 51°15.276 2°37.748 343.2 13.8 333.3 10.2
2002-08-23 08:25:12 51°15.488 2°37.578 343 14.2 334.2 11
2002-08-23 08:26:11 51°15.694 2°37.416 342.2 14.2 333.8 8.4
2002-08-23 08:27:13 51°15.913 2°37.253 343.3 14.1 335.3 11.1
2002-08-23 08:28:10 51°16.117 2°37.101 342.7 14.2 335 20.4
2002-08-23 08:29:13 51°16.338 2°36.921 340.8 14.1 329.6 -999
2002-08-23 08:30:13 51°16.491 2°36.824 35 5.9 17.5 5.8
2002-08-23 08:31:13 51°16.528 2°36.889 68 2.3 67.2 -999
2002-08-23 08:32:13 51°16.554 2°36.916 18.5 2.3 348.5 -999
2002-08-23 08:33:11 51°16.578 2°36.876 349.7 1.9 284.5 26
2002-08-23 08:34:11 51°16.583 2°36.822 338.8 2.1 274.5 26
2002-08-23 08:35:11 51°16.584 2°36.767 342.5 2 270.4 26
2002-08-23 08:36:11 51°16.582 2°36.714 350.2 1.9 266.2 26.3
2002-08-23 08:37:11 51°16.579 2°36.665 358.8 1.8 263.4 26.5
2002-08-23 08:38:11 51°16.575 2°36.619 9.7 1.7 260.8 26.6
2002-08-23 08:39:13 51°16.569 2°36.575 22.3 1.6 256.2 26.2
2002-08-23 08:40:13 51°16.561 2°36.536 35.8 1.5 249.9 26.1
2002-08-23 08:41:12 51°16.552 2°36.5 49.2 1.5 245.8 26.3
2002-08-23 08:42:10 51°16.541 2°36.465 61.8 1.5 241.5 26.7
2002-08-23 08:43:11 51°16.528 2°36.43 74.3 1.2 233.7 26.8
2002-08-23 08:44:13 51°16.503 2°36.47 94.7 3.3 114.9 26.4
2002-08-23 08:45:12 51°16.582 2°36.523 0.3 9.2 348.4 26.3
2002-08-23 08:46:12 51°16.749 2°36.306 325.3 14.4 314 26.2
2002-08-23 08:47:10 51°16.907 2°36.026 322.7 14.7 311.6 25.5
2002-08-23 08:48:11 51°17.07 2°35.736 323.7 14.3 312.2 17.1
2002-08-23 08:49:11 51°17.233 2°35.464 323.7 14.1 314.7 11.8
2002-08-23 08:50:11 51°17.397 2°35.196 323.3 14.2 315.3 11.5
2002-08-23 08:51:12 51°17.567 2°34.922 322.8 14.5 314.9 15
2002-08-23 08:52:12 51°17.738 2°34.651 323.5 14.7 315 21.7
2002-08-23 08:53:11 51°17.9 2°34.376 321.8 14.5 312 27.8
2002-08-23 08:54:11 51°18.06 2°34.088 321.7 14.5 311.5 27
2002-08-23 08:55:13 51°18.224 2°33.792 321.5 14.4 311.6 24.7
2002-08-23 08:56:12 51°18.378 2°33.505 317.3 14.5 308.4 17.8
2002-08-23 08:57:12 51°18.528 2°33.204 317.2 14.5 308.9 23
2002-08-23 08:58:10 51°18.673 2°32.915 318 14.4 308.5 27.4
2002-08-23 08:59:11 51°18.822 2°32.608 317.7 14.4 307.4 26.9
2002-08-23 09:00:11 51°18.967 2°32.301 317.7 14.5 306.8 30.4
2002-08-23 09:01:12 51°19.114 2°31.988 317.5 14.5 305.8 30.4
2002-08-23 09:02:11 51°19.254 2°31.682 318.5 14.5 305.9 30
2002-08-23 09:03:12 51°19.398 2°31.368 318.3 14.4 306.3 29.8
2002-08-23 09:04:12 51°19.539 2°31.054 318.2 14.6 306.2 27.8
2002-08-23 09:05:12 51°19.656 2°30.786 320.2 9.9 304.8 20.5
2002-08-23 09:06:11 51°19.729 2°30.606 320 7.4 301.5 15.5
2002-08-23 09:07:12 51°19.79 2°30.449 321.7 6.5 302.8 15.3
2002-08-23 09:08:12 51°19.848 2°30.309 323.5 6.3 304.6 13.9
2002-08-23 09:09:11 51°19.908 2°30.178 323.7 6.2 305.8 13.3
2002-08-23 09:10:11 51°19.966 2°30.039 320 6.3 304.2 14.2
2002-08-23 09:11:11 51°20.023 2°29.912 326.7 5.1 306.7 10.9
2002-08-23 09:12:10 51°20.046 2°29.843 319.3 1.1 229.7 19.7
2002-08-23 09:13:13 51°20.019 2°29.832 325 1.6 198.8 -999
2002-08-23 09:14:11 51°19.995 2°29.816 329.5 1.5 209 16.7
2002-08-23 09:15:12 51°19.974 2°29.793 334.7 1.5 214.7 17
2002-08-23 09:16:12 51°19.953 2°29.771 342.3 1.5 217.6 17.4
2002-08-23 09:17:11 51°19.935 2°29.748 348.7 1.4 222 20
2002-08-23 09:18:10 51°19.917 2°29.722 357.2 1.5 225 19
2002-08-23 09:19:10 51°19.9 2°29.695 5 1.4 228.6 21.4
2002-08-23 09:20:11 51°19.884 2°29.666 15.2 1.4 230.2 22.9
2002-08-23 09:21:11 51°19.87 2°29.637 24.3 1.4 233.3 22.4
2002-08-23 09:22:11 51°19.856 2°29.607 32.2 1.4 234 24.6
2002-08-23 09:23:11 51°19.843 2°29.578 37.5 1.2 239.9 25.3
2002-08-23 09:24:12 51°19.86 2°29.562 3.5 2.3 338.5 26.6
2002-08-23 09:25:12 51°19.905 2°29.472 296.7 5.7 287.9 30.5
2002-08-23 09:26:10 51°19.875 2°29.321 223.2 6.6 226.4 31
2002-08-23 09:27:11 51°19.777 2°29.288 148.8 5.8 162.1 30.9
2002-08-23 09:28:12 51°19.726 2°29.405 103.5 5.8 107.6 28.3
2002-08-23 09:29:11 51°19.719 2°29.562 83.7 6.1 83.1 19
2002-08-23 09:30:11 51°19.728 2°29.722 89.8 5.9 88 15.5
2002-08-23 09:31:11 51°19.722 2°29.881 90.5 6 90.9 10.3
2002-08-23 09:32:13 51°19.728 2°30.044 84.8 6.1 84.3 11.9
2002-08-23 09:33:11 51°19.748 2°30.192 72.2 5.9 71.6 13.9
2002-08-23 09:34:12 51°19.756 2°30.342 99.8 5.8 105.6 15.3
2002-08-23 09:35:11 51°19.739 2°30.492 92.7 5.9 97.2 15.7
2002-08-23 09:36:11 51°19.721 2°30.65 97.2 6.2 105 19
2002-08-23 09:37:11 51°19.695 2°30.812 88.7 6 97.4 21.9
2002-08-23 09:38:12 51°19.7 2°30.969 79.3 5.8 85 24.5
2002-08-23 09:39:12 51°19.712 2°31.095 54.5 3.2 57.5 26.5
2002-08-23 09:40:12 51°19.747 2°31.119 29.5 2.1 7.6 26.9
2002-08-23 09:41:12 51°19.778 2°31.115 23.3 1.7 346.9 26
2002-08-23 09:42:12 51°19.803 2°31.102 19.8 1.6 337.6 25
2002-08-23 09:43:12 51°19.824 2°31.084 21.7 1.3 322.9 24.2
2002-08-23 09:44:11 51°19.836 2°31.064 24 0.9 310.5 24
2002-08-23 09:45:11 51°19.843 2°31.045 29.5 0.7 287.2 23.2
2002-08-23 09:46:11 51°19.844 2°31.028 34.3 0.7 269.2 22.7
2002-08-23 09:47:13 51°19.843 2°31.009 35 0.7 259.5 23.2
2002-08-23 09:48:12 51°19.839 2°30.991 40.7 0.8 246.5 22.7
2002-08-23 09:49:12 51°19.833 2°30.972 43.7 0.8 241.1 22.5
2002-08-23 09:50:11 51°19.826 2°30.954 50.7 0.6 233.7 22.2
2002-08-23 09:51:12 51°19.821 2°30.953 62.7 0.4 118.8 22.1
2002-08-23 09:52:12 51°19.82 2°30.979 70.7 1.4 89.2 22.8
2002-08-23 09:53:12 51°19.817 2°31.029 82.8 2.2 103.8 23.8
2002-08-23 09:54:11 51°19.805 2°31.089 88.7 2.6 108.7 25.2
2002-08-23 09:55:11 51°19.78 2°31.154 107.5 3.1 132.4 27.2
2002-08-23 09:56:13 51°19.739 2°31.196 122.3 2.7 158 28.2
2002-08-23 09:57:12 51°19.697 2°31.214 127.8 2.6 167.9 29.3
2002-08-23 09:58:13 51°19.654 2°31.222 138.3 2.6 178.3 29.9
2002-08-23 09:59:11 51°19.61 2°31.211 167.8 2.9 195.9 30.3
2002-08-23 10:00:12 51°19.564 2°31.18 187.8 2.9 207.3 30
2002-08-23 10:01:11 51°19.524 2°31.14 204.2 2.9 215.8 30
2002-08-23 10:02:11 51°19.489 2°31.092 222.3 2.7 223.8 30
2002-08-23 10:03:11 51°19.461 2°31.041 239.3 2.4 230.9 30.1
2002-08-23 10:04:12 51°19.437 2°30.993 256 2.2 233.9 29.4
2002-08-23 10:05:12 51°19.417 2°30.943 267.8 2.4 239.6 28.8
2002-08-23 10:06:11 51°19.398 2°30.881 279.2 2.7 247.7 28.3
2002-08-23 10:07:11 51°19.384 2°30.816 288.3 2.5 250.5 26.6
2002-08-23 10:08:11 51°19.372 2°30.758 299 2.1 253 26.6
2002-08-23 10:09:11 51°19.362 2°30.708 310.2 1.9 254.9 25.3
2002-08-23 10:10:12 51°19.355 2°30.663 317.2 1.7 253.9 24.8
2002-08-23 10:11:13 51°19.349 2°30.621 334 1.5 264.2 23.5
2002-08-23 10:12:11 51°19.349 2°30.59 3 1 273.1 22.7
2002-08-23 10:13:12 51°19.351 2°30.572 29.3 0.4 272.5 22.9
2002-08-23 10:14:11 51°19.35 2°30.568 55.2 0.2 160.2 23.1
2002-08-23 10:15:11 51°19.341 2°30.577 86.3 1 140.4 23
2002-08-23 10:16:11 51°19.326 2°30.602 87.2 1.4 127.9 23.6
2002-08-23 10:17:13 51°19.318 2°30.634 67.2 1.2 100.3 24.2
2002-08-23 10:18:11 51°19.318 2°30.667 65.7 1.4 88.2 25.3
2002-08-23 10:19:12 51°19.317 2°30.708 74.3 1.7 95.5 26.5
2002-08-23 10:20:11 51°19.316 2°30.75 62.8 1.5 82.7 27.6
2002-08-23 10:21:12 51°19.327 2°30.782 45 1.3 48.1 28.3
2002-08-23 10:22:12 51°19.344 2°30.804 38.2 1.4 33.5 28.8
2002-08-23 10:23:12 51°19.366 2°30.821 33.3 1.5 22.9 28.3
2002-08-23 10:24:13 51°19.388 2°30.838 40.8 1.4 34.1 28.2
2002-08-23 10:25:12 51°19.402 2°30.867 59.8 1.4 66.1 28.4
2002-08-23 10:26:12 51°19.404 2°30.909 79.7 1.7 98.4 29.7
2002-08-23 10:27:11 51°19.39 2°30.953 100.2 2.1 123.7 29.9
2002-08-23 10:28:13 51°19.362 2°30.998 121 2.5 143.5 30.6
2002-08-23 10:29:12 51°19.323 2°31.032 130.8 2.7 154.4 30.8
2002-08-23 10:30:11 51°19.291 2°31.07 102.5 2.2 133.5 31.3
2002-08-23 10:31:11 51°19.277 2°31.112 73.2 1.5 100.4 31.5
2002-08-23 10:32:11 51°19.281 2°31.143 47 1 59 31.4
2002-08-23 10:33:11 51°19.293 2°31.162 37.3 1.1 35.4 31.4
2002-08-23 10:34:12 51°19.31 2°31.177 35.5 1.1 31.8 31.2
2002-08-23 10:35:11 51°19.326 2°31.194 39.2 1.2 34.4 31.5
2002-08-23 10:36:12 51°19.342 2°31.214 41.7 1.3 41.1 31.6
2002-08-23 10:37:12 51°19.358 2°31.236 40.5 1.2 40 31.5
2002-08-23 10:38:12 51°19.374 2°31.256 37.7 1.3 35.8 31.3
2002-08-23 10:39:11 51°19.392 2°31.273 34.2 1.3 27.8 31.5
2002-08-23 10:40:13 51°19.413 2°31.29 32.7 1.4 26.1 31.6
2002-08-23 10:41:11 51°19.433 2°31.305 29.2 1.4 21.2 31.6
2002-08-23 10:42:12 51°19.456 2°31.317 25.8 1.5 15.1 31.6
2002-08-23 10:43:12 51°19.48 2°31.325 22.7 1.5 11.4 31.6
2002-08-23 10:44:12 51°19.504 2°31.332 20.7 1.5 7.5 31.7
2002-08-23 10:45:11 51°19.53 2°31.335 17.8 1.6 3.3 31.8
2002-08-23 10:46:11 51°19.556 2°31.337 16.5 1.6 3.9 31.8
2002-08-23 10:47:13 51°19.584 2°31.339 14.8 1.6 1.2 31.9
2002-08-23 10:48:12 51°19.611 2°31.338 12.7 1.7 358.8 31.5
2002-08-23 10:49:12 51°19.64 2°31.337 11.3 1.7 357.7 31.8
2002-08-23 10:50:11 51°19.668 2°31.335 11 1.7 357.1 31.9
2002-08-23 10:51:11 51°19.696 2°31.335 12.8 1.7 4 31.8
2002-08-23 10:52:11 51°19.722 2°31.35 25.7 1.7 31.3 31.2
2002-08-23 10:53:13 51°19.746 2°31.38 30.5 1.8 41.5 31.7
2002-08-23 10:54:13 51°19.768 2°31.413 31 1.8 44.2 31.9
2002-08-23 10:55:11 51°19.789 2°31.446 29.7 1.8 44 31.5
2002-08-23 10:56:12 51°19.808 2°31.477 28.3 1.5 47.3 32
2002-08-23 10:57:11 51°19.823 2°31.506 28.8 1.4 50.2 31.8
2002-08-23 10:58:11 51°19.837 2°31.535 32.2 1.5 53 32
2002-08-23 10:59:11 51°19.852 2°31.569 39.2 1.6 59.2 32
2002-08-23 11:00:11 51°19.864 2°31.608 48.2 1.8 64.8 32.2
2002-08-23 11:01:11 51°19.878 2°31.656 58 2.2 66 32.3
2002-08-23 11:02:12 51°19.891 2°31.715 71 2.5 73.8 32.4
2002-08-23 11:03:11 51°19.895 2°31.781 86 2.6 89.8 32.2
2002-08-23 11:04:13 51°19.889 2°31.854 99 2.7 102.4 32.6
2002-08-23 11:05:10 51°19.88 2°31.921 98.7 2.7 102.5 33.1
2002-08-23 11:06:12 51°19.864 2°31.99 115.3 2.7 116.1 32.4
2002-08-23 11:07:12 51°19.837 2°32.047 137.2 2.7 136.9 32.6
2002-08-23 11:08:12 51°19.797 2°32.085 159.8 2.8 157.6 33
2002-08-23 11:09:11 51°19.752 2°32.098 181.7 2.8 178 33.7
2002-08-23 11:10:11 51°19.706 2°32.096 185.8 2.8 183.8 33.2
2002-08-23 11:11:13 51°19.659 2°32.091 186.3 2.7 183.6 33
2002-08-23 11:12:12 51°19.614 2°32.087 187.2 2.8 183.8 32
2002-08-23 11:13:18 51°19.564 2°32.079 191 2.8 186.7 32.5
2002-08-23 11:14:27 51°19.513 2°32.064 199.7 2.7 193.7 32.7
2002-08-23 11:15:28 51°19.47 2°32.042 207.2 2.6 201.2 32.8
2002-08-23 11:16:27 51°19.431 2°32.013 213.5 2.6 207.9 32.8
2002-08-23 11:17:26 51°19.395 2°31.981 215.8 2.5 209.4 32.8
2002-08-23 11:18:27 51°19.359 2°31.946 217.8 2.5 212.9 33
2002-08-23 11:19:26 51°19.324 2°31.911 219.3 2.5 213.6 32.9
2002-08-23 11:20:26 51°19.29 2°31.875 220.8 2.4 215 32.8
2002-08-23 11:21:28 51°19.257 2°31.837 223.2 2.4 215.8 32.9
2002-08-23 11:22:27 51°19.225 2°31.799 225 2.4 217.5 33
2002-08-23 11:23:28 51°19.194 2°31.76 225.8 2.3 218 33.3
2002-08-23 11:24:26 51°19.165 2°31.722 227.5 2.3 219.3 33.3
2002-08-23 11:25:28 51°19.134 2°31.683 227.7 2.3 219.3 33
2002-08-23 11:26:26 51°19.106 2°31.645 228.7 2.2 221.3 33
2002-08-23 11:27:26 51°19.078 2°31.607 229.2 2.2 221.4 33.1
2002-08-23 11:28:28 51°19.05 2°31.567 229.8 2.2 221.7 33.3
2002-08-23 11:29:26 51°19.024 2°31.529 231 2.2 223 33.1
2002-08-23 11:30:26 51°18.998 2°31.49 231.8 2.1 224 33
2002-08-23 11:31:28 51°18.974 2°31.449 238 2 230.5 32.8
2002-08-23 11:32:28 51°18.956 2°31.406 247.3 1.9 241.3 32.8
2002-08-23 11:33:26 51°18.948 2°31.367 262.7 1.4 263.1 32.5
2002-08-23 11:34:27 51°18.95 2°31.336 275.5 1.1 281.7 32.5
2002-08-23 11:35:26 51°18.957 2°31.308 282.8 1.1 293.6 32.8
2002-08-23 11:36:26 51°18.965 2°31.286 286.2 0.9 304.5 32.8
2002-08-23 11:37:26 51°18.974 2°31.269 290.5 0.8 316 32.9
2002-08-23 11:38:28 51°18.985 2°31.255 294.3 0.9 320.4 33.1
2002-08-23 11:39:26 51°19.005 2°31.219 302.7 2.8 311.1 32.9
2002-08-23 11:40:26 51°19.045 2°31.163 318.8 3.4 327.3 32.6
2002-08-23 11:41:26 51°19.095 2°31.133 338.8 3.1 349.1 32.7
2002-08-23 11:42:28 51°19.148 2°31.132 354.8 3.1 5.5 32.9
2002-08-23 11:43:27 51°19.197 2°31.149 6 3.2 15.8 32.8
2002-08-23 11:44:26 51°19.248 2°31.178 13.2 3.3 21.4 32.9
2002-08-23 11:45:26 51°19.298 2°31.217 22.2 3.4 29.8 32.7
2002-08-23 11:46:28 51°19.348 2°31.268 29.8 3.5 35.1 32.6
2002-08-23 11:47:27 51°19.393 2°31.325 36.3 3.5 39.5 32.8
2002-08-23 11:48:28 51°19.439 2°31.388 41.7 3.6 42.7 32.9
2002-08-23 11:49:27 51°19.48 2°31.456 49.7 3.6 49.4 33
2002-08-23 11:50:26 51°19.515 2°31.532 56.8 3.6 54.9 33
2002-08-23 11:51:26 51°19.55 2°31.611 57.7 3.6 54.6 33.2
2002-08-23 11:52:26 51°19.58 2°31.682 64 2.9 58.5 33.4
2002-08-23 11:53:26 51°19.603 2°31.745 67.7 2.6 58 33.3
2002-08-23 11:54:26 51°19.626 2°31.801 65.2 2.4 57 33.5
2002-08-23 11:55:26 51°19.647 2°31.852 63.7 2.2 54.2 33.3
2002-08-23 11:56:28 51°19.668 2°31.899 62.7 2 54.2 33.7
2002-08-23 11:57:28 51°19.687 2°31.94 62.2 1.9 53.6 33.8
2002-08-23 11:58:33 51°19.706 2°31.983 60.7 1.8 52.7 34
2002-08-23 11:59:31 51°19.724 2°32.019 61.5 1.8 52.3 34.4
2002-08-23 12:00:33 51°19.742 2°32.057 61.2 1.7 52.1 34.5
2002-08-23 12:01:33 51°19.759 2°32.093 62.2 1.7 52 34.4
2002-08-23 12:02:33 51°19.776 2°32.128 63 1.7 52.2 34.3
2002-08-23 12:03:33 51°19.792 2°32.163 64 1.6 53.7 34.3
2002-08-23 12:04:31 51°19.808 2°32.198 66.8 1.6 55.4 33.3
2002-08-23 12:05:31 51°19.823 2°32.235 69 1.7 56.4 33.1
2002-08-23 12:06:31 51°19.838 2°32.271 69.2 1.7 57.1 33.2
2002-08-23 12:07:31 51°19.853 2°32.309 70 1.7 57.1 33.3
2002-08-23 12:08:31 51°19.868 2°32.346 70.5 1.7 57 33.4
2002-08-23 12:09:31 51°19.883 2°32.383 72.7 1.6 58.9 33.2
2002-08-23 12:10:33 51°19.898 2°32.422 74.8 1.6 59.5 33.3
2002-08-23 12:11:33 51°19.912 2°32.459 74.5 1.6 57.5 33.4
2002-08-23 12:12:33 51°19.926 2°32.496 75.7 1.6 58.1 33.4
2002-08-23 12:13:31 51°19.939 2°32.531 76.3 1.6 56.8 33.4
2002-08-23 12:14:31 51°19.955 2°32.566 76.8 1.6 58.6 33.9
2002-08-23 12:15:31 51°19.968 2°32.603 78.7 1.6 59 34.2
2002-08-23 12:16:33 51°19.982 2°32.642 80 1.6 59.8 33.6
2002-08-23 12:17:31 51°19.995 2°32.678 80.3 1.6 60.9 33.6
2002-08-23 12:18:33 51°20.009 2°32.718 80.7 1.7 59.5 33.5
2002-08-23 12:19:33 51°20.022 2°32.758 80 1.7 58.1 33.7
2002-08-23 12:20:31 51°20.036 2°32.796 80.5 1.7 60.1 34
2002-08-23 12:21:33 51°20.05 2°32.839 81.3 1.7 60.9 34
2002-08-23 12:22:33 51°20.064 2°32.88 81.3 1.7 60.7 34.2
2002-08-23 12:23:34 51°20.079 2°32.921 80.3 1.8 60 34.1
2002-08-23 12:24:34 51°20.094 2°32.96 82 1.8 60 33.7
2002-08-23 12:25:34 51°20.109 2°32.999 84.2 1.8 62.7 34
2002-08-23 12:26:34 51°20.123 2°33.041 86.8 1.8 62.7 34.3
2002-08-23 12:27:34 51°20.137 2°33.083 87 1.8 62.1 34.2
2002-08-23 12:28:35 51°20.152 2°33.146 86 4.7 75 34.1
2002-08-23 12:29:36 51°20.142 2°33.422 111.7 13.2 104.1 33.9
2002-08-23 12:30:36 51°20.06 2°33.78 118 14.5 110.9 33.6
2002-08-23 12:31:36 51°19.974 2°34.143 120.3 14.6 112.5 32.1
2002-08-23 12:32:36 51°19.874 2°34.496 122.3 14.6 114.1 29.9
2002-08-23 12:33:35 51°19.774 2°34.846 123.3 14.8 115 18.6
2002-08-23 12:34:36 51°19.669 2°35.217 121.2 15.2 113.8 20.1
2002-08-23 12:35:36 51°19.565 2°35.58 122 15.1 114.3 23
2002-08-23 12:36:36 51°19.464 2°35.946 122.2 15.1 113.3 24.4
2002-08-23 12:37:36 51°19.363 2°36.311 123 14.9 114.7 23.2
2002-08-23 12:38:36 51°19.263 2°36.678 121.5 15.1 112.8 21.6
2002-08-23 12:39:36 51°19.161 2°37.048 121.3 15.2 113.7 22.8
2002-08-23 12:40:36 51°19.054 2°37.407 124 14.9 116.6 20.7
2002-08-23 12:41:36 51°18.939 2°37.758 124 14.9 117.3 24.6
2002-08-23 12:42:36 51°18.828 2°38.113 123.2 14.8 116.7 28.7
2002-08-23 12:43:36 51°18.72 2°38.466 122.7 14.8 114.6 29.4
2002-08-23 12:44:36 51°18.62 2°38.821 124.3 14.5 114.8 29.5
2002-08-23 12:45:36 51°18.514 2°39.167 125 14.6 115.7 28.6
2002-08-23 12:46:36 51°18.409 2°39.514 125.2 14.5 116.1 28.6
2002-08-23 12:47:36 51°18.304 2°39.865 124.8 14.8 115.9 28.6
2002-08-23 12:48:36 51°18.195 2°40.219 125.2 15.1 116.3 20.3
2002-08-23 12:49:36 51°18.083 2°40.58 125.5 15.2 116.7 18.4
2002-08-23 12:50:36 51°17.967 2°40.938 125 15.2 117.6 21
2002-08-23 12:51:36 51°17.852 2°41.295 123.5 15.1 116.9 24.8
2002-08-23 12:52:36 51°17.74 2°41.652 122.8 14.9 116 26.7
2002-08-23 12:53:36 51°17.638 2°42.004 123.3 14.5 115.3 27
2002-08-23 12:54:36 51°17.529 2°42.345 126.2 14.4 118 25.9
2002-08-23 12:55:35 51°17.419 2°42.683 125.8 14.6 117 16
2002-08-23 12:56:36 51°17.301 2°43.033 126.7 14.9 119 14
2002-08-23 12:57:36 51°17.18 2°43.378 125.5 15 118.2 16.3
2002-08-23 12:58:36 51°17.06 2°43.724 125.7 14.9 118.5 17.4
2002-08-23 12:59:36 51°16.939 2°44.069 125.8 14.9 118.8 18
2002-08-23 13:00:36 51°16.821 2°44.413 126 14.6 118.9 17.7
2002-08-23 13:01:36 51°16.705 2°44.754 126.7 14.5 119.5 15.7
2002-08-23 13:02:36 51°16.586 2°45.089 125.8 14.5 119.8 14.9
2002-08-23 13:03:36 51°16.469 2°45.422 125 14.4 118.8 13.5
2002-08-23 13:04:36 51°16.358 2°45.76 121.3 14.4 115.2 12.8
2002-08-23 13:05:36 51°16.297 2°46.136 108.7 14.8 101.3 12.4
2002-08-23 13:06:36 51°16.236 2°46.521 112.5 14.9 105.7 13.7
2002-08-23 13:07:36 51°16.168 2°46.908 112.5 15.2 105.7 16.4
2002-08-23 13:08:36 51°16.098 2°47.296 112.5 15.2 106.5 18.6
2002-08-23 13:09:36 51°16.027 2°47.686 112.5 15.3 106.5 18.6
2002-08-23 13:10:36 51°15.955 2°48.077 112.8 15.3 106.7 17.9
2002-08-23 13:11:36 51°15.879 2°48.463 113 15.2 107.3 15.7
2002-08-23 13:12:36 51°15.804 2°48.849 112.5 15.2 106.8 14.1
2002-08-23 13:13:36 51°15.729 2°49.227 112.5 15 107.3 13.5
2002-08-23 13:14:36 51°15.653 2°49.602 112.7 15 107 15.3
2002-08-23 13:15:36 51°15.581 2°49.985 112.7 15 106.6 15.9
2002-08-23 13:16:36 51°15.511 2°50.37 110.3 15.1 105 15.8
2002-08-23 13:17:36 51°15.45 2°50.758 109.7 15.1 103.5 15.8
2002-08-23 13:18:36 51°15.393 2°51.148 110.2 15.1 103.8 15.5
2002-08-23 13:19:36 51°15.333 2°51.536 109.7 15.1 103.7 15.2
2002-08-23 13:20:36 51°15.27 2°51.901 116.5 12.5 108.3 14.9
2002-08-23 13:21:36 51°15.207 2°52.169 120.3 10.2 111.7 14.3
2002-08-23 13:22:36 51°15.145 2°52.421 121.3 11 111.4 14.1
2002-08-23 13:23:36 51°15.054 2°52.763 117.5 14.6 111.5 13.3
2002-08-23 13:24:36 51°14.961 2°53.107 121.3 13.4 114.2 13.1
2002-08-23 13:25:36 51°14.868 2°53.423 121.8 13.1 116.4 12.8
2002-08-23 13:26:36 51°14.771 2°53.736 122.7 13.3 117 12.7
2002-08-23 13:27:36 51°14.673 2°54.051 121.8 13.4 114.2 13.2
2002-08-23 13:28:36 51°14.572 2°54.366 124.2 13.3 116.9 13.1
2002-08-23 13:29:36 51°14.472 2°54.68 122.5 13.3 115.5 12.7
2002-08-23 13:30:36 51°14.369 2°54.993 122.8 13.3 116.6 12.1
2002-08-23 13:31:36 51°14.264 2°55.248 131 9.4 128.8 13.4
2002-08-23 13:32:36 51°14.181 2°55.364 150.8 5.6 148.4 13.3
2002-08-23 13:33:35 51°14.099 2°55.426 156.7 5.6 154.9 13.6
2002-08-23 13:34:36 51°14.003 2°55.497 156.5 6.4 155.4 13.1